Portada
METAR-TAF:

METAR-TAF

Aeroports :

Gaborone, Botswana

latitud: 24-13S, longitud: 025-55E, altitud: 1005 m

Observació

L'informe es va fer fa 48 minuts, a les 07:00 UTC
Vent 9 kt del Est/Nord-Est
Temperatura 23°C
Humitat 41%
Pressió 1026 hPa
Visibilitat 10 km o més
sense núvols per sota de 1500 mi sense presència de cumulonimbus.

METAR: FBSK 200700Z 06009KT CAVOK 23/09 Q1026 NOSIG

Hora: 09:48 (07:48 UTC)

Pronòstic

L'informe es va fer fa 4 hores i 48 minuts, a les 03:00 UTC
Pronòstic vàlid del 20 a les 06 UTC al 21 a les 12 UTC
Vent 18 kt del Nord-Est
Visibilitat 10 km o més
sense núvols per sota de 1500 mi sense presència de cumulonimbus.

TAF: FBSK 200300Z 2006/2112 04018KT CAVOK

Observacions i pronòstics meteorològics de més de 4000 aeroports (METAR i TAF).

Les estacions disponibles són els punts grocs i vermells al mapa.

Posi el ratolí al punt desitjat per veure el nom de l'estació.

Feu clic per veure les observacions i els pronòstics meteorològics.

Per canviar el mapa: feu clic els botons verds amb una creu de color negre per apropar; al botó verd amb un guió per allunyar la imatge; o en les fletxes verdes per a mapes adjacents.


METAR-TAF: